Time;durP1;ratioP1;P1;durP2;ratioP2;P2;SDS_P1;SDS_P2;PMS_P1;PMS_P2;Temp;Humidity;BMP_temperature;BMP_pressure;BME280_temperature;BME280_humidity;BME280_pressure;Samples;Min_cycle;Max_cycle;Signal;HPM_P1;HPM_P2
2022/10/12 00:00:58;;;;;;;22.30;19.70;;;14.60;99.90;;;;;;5045067;28;20445;-80
2022/10/12 00:03:26;;;;;;;22.37;19.90;;;14.50;99.90;;;;;;5038741;28;20489;-80
2022/10/12 00:06:02;;;;;;;19.93;17.67;;;14.60;99.90;;;;;;5044331;28;20454;-80
2022/10/12 00:08:32;;;;;;;24.13;19.57;;;14.50;99.90;;;;;;5034482;28;20483;-81
2022/10/12 00:11:00;;;;;;;20.53;18.43;;;14.60;99.90;;;;;;5043556;28;20462;-80
2022/10/12 00:13:29;;;;;;;20.83;18.70;;;14.60;99.90;;;;;;5045792;28;20513;-80
2022/10/12 00:15:57;;;;;;;18.80;17.10;;;14.60;99.90;;;;;;5041041;28;20456;-80
2022/10/12 00:18:25;;;;;;;24.20;17.93;;;14.70;99.90;;;;;;5043773;28;21445;-81
2022/10/12 00:21:01;;;;;;;22.50;18.13;;;14.70;92.90;;;;;;5037809;28;20572;-81
2022/10/12 00:23:31;;;;;;;22.60;18.63;;;14.70;1.00;;;;;;5042969;28;20558;-80
2022/10/12 00:26:03;;;;;;;18.87;17.07;;;14.60;60.50;;;;;;5039682;28;20474;-80
2022/10/12 00:28:31;;;;;;;20.03;17.10;;;14.60;99.90;;;;;;5041148;28;20534;-81
2022/10/12 00:31:00;;;;;;;19.90;17.93;;;14.50;99.90;;;;;;5042621;28;20483;-80
2022/10/12 00:33:29;;;;;;;19.10;17.37;;;14.50;99.90;;;;;;5045124;28;20463;-81
2022/10/12 00:35:57;;;;;;;18.63;16.77;;;14.50;99.90;;;;;;5027251;28;20543;-82
2022/10/12 00:38:25;;;;;;;18.07;15.73;;;14.50;99.90;;;;;;5042344;28;20488;-80
2022/10/12 00:40:54;;;;;;;19.30;17.40;;;14.60;99.90;;;;;;5038704;28;21018;-81
2022/10/12 00:43:28;;;;;;;20.60;16.53;;;14.50;99.90;;;;;;5045762;28;21008;-80
2022/10/12 00:45:58;;;;;;;18.70;16.80;;;14.50;99.90;;;;;;5037761;28;20465;-80
2022/10/12 00:48:27;;;;;;;18.77;16.70;;;14.40;99.90;;;;;;5039713;28;20549;-81
2022/10/12 00:50:55;;;;;;;18.33;16.57;;;14.30;99.90;;;;;;5037894;28;20534;-80
2022/10/12 00:53:26;;;;;;;18.87;16.33;;;14.30;99.90;;;;;;5044711;28;20458;-80
2022/10/12 00:56:02;;;;;;;18.50;16.50;;;14.20;99.90;;;;;;5042703;28;20464;-81
2022/10/12 00:58:31;;;;;;;21.43;17.00;;;14.30;99.90;;;;;;5038250;28;20858;-80
2022/10/12 01:01:01;;;;;;;20.00;16.30;;;14.30;99.90;;;;;;5036910;28;20513;-81
2022/10/12 01:03:29;;;;;;;18.73;16.83;;;14.30;99.90;;;;;;5044457;28;20440;-81
2022/10/12 01:05:58;;;;;;;18.10;16.27;;;14.30;99.90;;;;;;5041143;28;20459;-81
2022/10/12 01:08:28;;;;;;;17.13;15.10;;;14.40;99.90;;;;;;5040788;28;20451;-81
2022/10/12 01:10:58;;;;;;;16.60;15.00;;;14.40;99.90;;;;;;5044815;28;20499;-81
2022/10/12 01:13:26;;;;;;;18.10;14.83;;;14.20;99.90;;;;;;5050321;28;20500;-80
2022/10/12 01:15:58;;;;;;;17.23;15.63;;;14.30;99.90;;;;;;5052011;28;20533;-81
2022/10/12 01:18:33;;;;;;;17.50;14.43;;;14.30;99.90;;;;;;5053638;28;20465;-81
2022/10/12 01:21:09;;;;;;;19.83;16.03;;;14.30;99.90;;;;;;5044760;28;20556;-80
2022/10/12 01:24:01;;;;;;;17.40;15.50;;;14.20;99.90;;;;;;5047559;28;20489;-81
2022/10/12 01:26:57;;;;;;;18.73;16.97;;;14.10;99.90;;;;;;5047543;28;20493;-80
2022/10/12 01:29:54;;;;;;;17.83;15.77;;;14.20;99.90;;;;;;5047484;28;20535;-79
2022/10/12 01:32:31;;;;;;;21.53;16.10;;;14.20;99.90;;;;;;5049937;28;20477;-81
2022/10/12 01:35:04;;;;;;;18.03;16.27;;;14.10;99.90;;;;;;5050561;28;20568;-80
2022/10/12 01:37:40;;;;;;;17.23;15.43;;;14.10;99.90;;;;;;5045326;28;20459;-81
2022/10/12 01:40:14;;;;;;;23.47;17.50;;;14.10;99.90;;;;;;5056243;28;20504;-80
2022/10/12 01:42:44;;;;;;;18.53;16.40;;;14.10;99.90;;;;;;5044963;28;20451;-80
2022/10/12 01:45:14;;;;;;;19.53;16.90;;;14.00;99.90;;;;;;5043733;28;20526;-80
2022/10/12 01:47:48;;;;;;;23.50;15.90;;;14.00;99.90;;;;;;5045195;28;20515;-80
2022/10/12 01:50:17;;;;;;;19.90;17.77;;;13.90;1.00;;;;;;5055088;28;20534;-80
2022/10/12 01:52:57;;;;;;;17.13;15.50;;;14.00;1.00;;;;;;5044852;28;20519;-80
2022/10/12 01:55:35;;;;;;;17.07;15.47;;;14.00;99.90;;;;;;5044570;28;20454;-79
2022/10/12 01:58:17;;;;;;;18.93;16.93;;;14.00;99.90;;;;;;5044050;28;20450;-80
2022/10/12 02:00:57;;;;;;;18.57;16.27;;;14.00;99.90;;;;;;5042993;28;20474;-79
2022/10/12 02:03:33;;;;;;;17.43;15.60;;;14.10;99.90;;;;;;5047009;28;20457;-80
2022/10/12 02:06:04;;;;;;;19.83;16.83;;;14.10;99.90;;;;;;5042516;28;20861;-80
2022/10/12 02:08:35;;;;;;;17.43;15.73;;;14.20;99.90;;;;;;5041275;28;20456;-80
2022/10/12 02:11:07;;;;;;;18.93;16.93;;;14.20;99.90;;;;;;5046438;28;20559;-80
2022/10/12 02:13:39;;;;;;;17.10;15.30;;;14.10;99.90;;;;;;5045666;28;20517;-79
2022/10/12 02:16:10;;;;;;;15.53;13.90;;;14.20;99.90;;;;;;5039323;28;20474;-80
2022/10/12 02:18:43;;;;;;;18.33;16.37;;;14.10;99.90;;;;;;5043243;28;20492;-80
2022/10/12 02:21:16;;;;;;;19.93;18.00;;;14.10;99.90;;;;;;5051780;28;20460;-81
2022/10/12 02:23:45;;;;;;;19.90;17.80;;;14.10;1.00;;;;;;5042448;28;20447;-82
2022/10/12 02:26:14;;;;;;;20.73;18.37;;;14.20;99.90;;;;;;5046300;28;20452;-80
2022/10/12 02:28:45;;;;;;;20.00;18.00;;;14.10;1.00;;;;;;5042355;28;20443;-80
2022/10/12 02:31:21;;;;;;;20.37;18.40;;;14.20;1.00;;;;;;5041544;28;20896;-81
2022/10/12 02:34:00;;;;;;;21.53;18.23;;;14.20;99.90;;;;;;5044813;28;20443;-80
2022/10/12 02:36:34;;;;;;;21.80;19.03;;;14.20;99.90;;;;;;5047650;28;20545;-80
2022/10/12 02:39:08;;;;;;;20.30;17.90;;;14.20;99.90;;;;;;5040364;28;20567;-81
2022/10/12 02:41:41;;;;;;;19.73;17.70;;;14.20;99.90;;;;;;5042977;28;20586;-80
2022/10/12 02:44:13;;;;;;;20.10;18.20;;;14.20;99.90;;;;;;5046843;28;20871;-81
2022/10/12 02:46:43;;;;;;;22.53;18.77;;;14.20;99.90;;;;;;5046322;28;20508;-81
2022/10/12 02:49:14;;;;;;;21.20;18.43;;;14.30;99.90;;;;;;5050673;28;20615;-81
2022/10/12 02:51:43;;;;;;;21.63;17.83;;;14.20;99.90;;;;;;5047498;28;20576;-80
2022/10/12 02:54:13;;;;;;;25.03;19.17;;;14.20;99.90;;;;;;5046335;28;20485;-81
2022/10/12 02:56:45;;;;;;;28.87;22.50;;;14.20;99.90;;;;;;5046816;28;20529;-80
2022/10/12 02:59:14;;;;;;;28.17;23.63;;;14.40;99.90;;;;;;5039425;28;20468;-81
2022/10/12 03:01:42;;;;;;;27.50;23.77;;;14.40;99.90;;;;;;5051292;28;20454;-81
2022/10/12 03:04:12;;;;;;;30.67;23.27;;;14.30;99.90;;;;;;5040810;28;20803;-80
2022/10/12 03:06:41;;;;;;;34.67;25.27;;;14.10;99.90;;;;;;5044666;28;22339;-81
2022/10/12 03:09:09;;;;;;;27.10;22.40;;;14.10;1.00;;;;;;5041919;28;20526;-81
2022/10/12 03:11:42;;;;;;;32.90;24.33;;;14.00;1.00;;;;;;5043506;28;20477;-81
2022/10/12 03:14:11;;;;;;;27.43;22.73;;;14.00;1.00;;;;;;5043826;28;20460;-81
2022/10/12 03:16:39;;;;;;;28.10;23.57;;;14.00;1.00;;;;;;5042115;28;20459;-80
2022/10/12 03:19:07;;;;;;;28.70;23.50;;;14.00;1.00;;;;;;5042099;28;20568;-82
2022/10/12 03:21:37;;;;;;;28.37;24.17;;;14.00;1.00;;;;;;5047676;28;20462;-80
2022/10/12 03:24:05;;;;;;;26.83;24.00;;;14.00;1.00;;;;;;5050179;28;20454;-80
2022/10/12 03:26:34;;;;;;;33.90;23.17;;;14.10;1.00;;;;;;5051105;28;20465;-81
2022/10/12 03:29:02;;;;;;;23.60;21.00;;;14.10;1.00;;;;;;5047680;28;20759;-80
2022/10/12 03:31:30;;;;;;;23.30;20.80;;;14.10;1.00;;;;;;5046477;28;20978;-80
2022/10/12 03:33:59;;;;;;;28.13;22.40;;;14.10;1.00;;;;;;5048597;28;20459;-80
2022/10/12 03:36:27;;;;;;;24.63;21.70;;;14.10;1.00;;;;;;5048643;28;20451;-80
2022/10/12 03:38:56;;;;;;;28.50;22.43;;;14.20;1.00;;;;;;5042794;28;20481;-80
2022/10/12 03:41:24;;;;;;;29.73;22.73;;;14.10;1.00;;;;;;5046342;28;20459;-80
2022/10/12 03:43:53;;;;;;;26.50;21.63;;;14.10;1.00;;;;;;5043962;28;20534;-81
2022/10/12 03:46:21;;;;;;;28.00;23.77;;;14.10;1.00;;;;;;5043502;28;20584;-80
2022/10/12 03:48:49;;;;;;;27.53;23.63;;;14.20;1.00;;;;;;5041544;28;20486;-81
2022/10/12 03:51:18;;;;;;;28.43;23.00;;;14.10;1.00;;;;;;5056453;28;20450;-80
2022/10/12 03:53:46;;;;;;;25.73;22.10;;;14.10;1.00;;;;;;5047189;28;20586;-81
2022/10/12 03:56:15;;;;;;;27.70;23.67;;;14.20;1.00;;;;;;5041556;28;21032;-81
2022/10/12 03:58:43;;;;;;;25.83;23.03;;;14.20;1.00;;;;;;5043004;28;20452;-81
2022/10/12 04:01:11;;;;;;;26.40;23.33;;;14.20;99.90;;;;;;5032918;28;20467;-81
2022/10/12 04:03:40;;;;;;;25.40;22.80;;;14.30;99.90;;;;;;5050327;28;20458;-81
2022/10/12 04:06:08;;;;;;;27.03;24.30;;;14.20;99.90;;;;;;5040796;28;20487;-81
2022/10/12 04:08:36;;;;;;;27.17;24.40;;;14.20;1.00;;;;;;5037042;28;20495;-81
2022/10/12 04:11:07;;;;;;;30.77;25.07;;;14.30;99.90;;;;;;5039719;28;20958;-80
2022/10/12 04:13:36;;;;;;;30.00;24.70;;;14.10;1.00;;;;;;5034505;28;20562;-81
2022/10/12 04:16:06;;;;;;;30.20;25.90;;;14.10;1.00;;;;;;5037577;28;20464;-81
2022/10/12 04:18:34;;;;;;;33.30;25.70;;;14.10;1.00;;;;;;5031244;28;20517;-81
2022/10/12 04:21:04;;;;;;;29.17;25.97;;;14.20;1.00;;;;;;5039333;28;20989;-82
2022/10/12 04:23:32;;;;;;;29.90;25.57;;;14.10;1.00;;;;;;5040623;28;20455;-80
2022/10/12 04:26:00;;;;;;;31.43;26.80;;;14.10;1.00;;;;;;5041391;28;21147;-81
2022/10/12 04:28:28;;;;;;;37.07;25.77;;;14.10;1.00;;;;;;5041867;28;20464;-80
2022/10/12 04:30:58;;;;;;;33.00;27.00;;;14.10;1.00;;;;;;5034338;28;20494;-80
2022/10/12 04:33:26;;;;;;;30.50;25.93;;;14.10;1.00;;;;;;5042373;28;20525;-80
2022/10/12 04:35:54;;;;;;;38.37;26.80;;;14.10;1.00;;;;;;5039817;28;20470;-80
2022/10/12 04:38:22;;;;;;;38.90;28.00;;;14.10;1.00;;;;;;5036836;28;20460;-81
2022/10/12 04:40:50;;;;;;;30.70;26.80;;;14.20;1.00;;;;;;5045232;28;20501;-81
2022/10/12 04:43:18;;;;;;;35.50;27.60;;;14.10;1.00;;;;;;5051020;28;20450;-84
2022/10/12 04:45:54;;;;;;;34.33;27.50;;;14.10;1.00;;;;;;5039535;28;20960;-85
2022/10/12 04:48:24;;;;;;;33.80;27.77;;;14.20;1.00;;;;;;5041913;28;20452;-83
2022/10/12 04:50:53;;;;;;;29.37;24.80;;;14.20;1.00;;;;;;5040966;28;20451;-83
2022/10/12 04:53:21;;;;;;;29.10;25.80;;;14.10;1.00;;;;;;5038942;28;20480;-83
2022/10/12 04:55:49;;;;;;;31.80;25.20;;;14.10;1.00;;;;;;5046448;28;21108;-83
2022/10/12 04:58:18;;;;;;;29.83;26.47;;;14.20;1.00;;;;;;5040744;28;20526;-84
2022/10/12 05:00:47;;;;;;;28.23;25.30;;;14.20;1.00;;;;;;5035701;28;21170;-84
2022/10/12 05:03:15;;;;;;;26.87;24.00;;;14.20;1.00;;;;;;5043597;28;20444;-85
2022/10/12 05:05:46;;;;;;;26.23;23.70;;;14.20;1.00;;;;;;5047518;28;20918;-83
2022/10/12 05:08:14;;;;;;;25.03;22.33;;;14.00;1.00;;;;;;5044622;28;20451;-83
2022/10/12 05:10:42;;;;;;;25.83;23.33;;;14.10;1.00;;;;;;5040130;28;20478;-83
2022/10/12 05:13:10;;;;;;;25.67;23.03;;;14.10;1.00;;;;;;5037980;28;20503;-83
2022/10/12 05:15:38;;;;;;;24.97;22.53;;;14.00;1.00;;;;;;5037914;28;20484;-83
2022/10/12 05:18:06;;;;;;;25.07;22.50;;;14.00;1.00;;;;;;5038115;28;20598;-84
2022/10/12 05:20:35;;;;;;;27.20;24.60;;;14.10;1.00;;;;;;5036929;28;20487;-83
2022/10/12 05:23:04;;;;;;;24.57;22.27;;;14.00;1.00;;;;;;5036528;28;20468;-82
2022/10/12 05:25:34;;;;;;;23.70;21.33;;;14.10;1.00;;;;;;5043703;28;20459;-83
2022/10/12 05:28:02;;;;;;;24.33;21.93;;;14.10;1.00;;;;;;5048112;28;20513;-83
2022/10/12 05:30:31;;;;;;;23.40;21.30;;;14.10;1.00;;;;;;5045984;28;20472;-82
2022/10/12 05:32:59;;;;;;;21.50;19.53;;;14.20;1.00;;;;;;5048638;28;20475;-83
2022/10/12 05:35:27;;;;;;;23.70;21.37;;;14.20;1.00;;;;;;5035998;28;20495;-82
2022/10/12 05:37:55;;;;;;;26.83;24.23;;;14.20;1.00;;;;;;5036629;28;20463;-84
2022/10/12 05:40:25;;;;;;;23.57;21.50;;;14.20;1.00;;;;;;5043207;28;20612;-83
2022/10/12 05:42:53;;;;;;;23.43;21.30;;;14.20;1.00;;;;;;5051236;28;20442;-82
2022/10/12 05:45:21;;;;;;;23.67;21.27;;;14.20;99.90;;;;;;5044433;28;20546;-84
2022/10/12 05:47:49;;;;;;;22.43;20.30;;;14.20;99.90;;;;;;5039301;28;20534;-84
2022/10/12 05:50:17;;;;;;;23.03;20.93;;;14.20;99.90;;;;;;5044000;28;20482;-83
2022/10/12 05:52:45;;;;;;;23.90;21.80;;;14.20;1.00;;;;;;5039380;28;20972;-83
2022/10/12 05:55:14;;;;;;;23.13;21.03;;;14.30;99.90;;;;;;5043757;28;20452;-84
2022/10/12 05:57:43;;;;;;;23.00;21.00;;;14.20;99.90;;;;;;5043587;28;20513;-83
2022/10/12 06:00:18;;;;;;;22.67;20.43;;;14.20;1.00;;;;;;5040051;28;20482;-84
2022/10/12 06:02:46;;;;;;;22.57;20.30;;;14.20;1.00;;;;;;5045482;28;20460;-84
2022/10/12 06:05:14;;;;;;;25.23;22.63;;;14.20;1.00;;;;;;5047802;28;20464;-82
2022/10/12 06:07:42;;;;;;;23.07;20.77;;;14.20;1.00;;;;;;5049955;28;20448;-82
2022/10/12 06:10:11;;;;;;;22.63;20.47;;;14.20;99.90;;;;;;5044523;28;21071;-82
2022/10/12 06:12:40;;;;;;;23.90;21.77;;;14.20;99.90;;;;;;5045032;28;20785;-83
2022/10/12 06:15:11;;;;;;;22.90;20.83;;;14.30;1.00;;;;;;5043856;28;20475;-83
2022/10/12 06:17:39;;;;;;;24.67;22.37;;;14.20;1.00;;;;;;5051871;28;21403;-83
2022/10/12 06:20:08;;;;;;;23.63;21.33;;;14.20;1.00;;;;;;5045588;28;20476;-83
2022/10/12 06:22:36;;;;;;;23.60;21.50;;;14.20;1.00;;;;;;5049406;28;20922;-84
2022/10/12 06:25:05;;;;;;;23.17;21.00;;;14.20;1.00;;;;;;5049901;28;20823;-84
2022/10/12 06:27:34;;;;;;;25.03;22.57;;;14.20;1.00;;;;;;5045121;28;20542;-84
2022/10/12 06:30:03;;;;;;;24.40;22.30;;;14.20;1.00;;;;;;5048584;28;20567;-82
2022/10/12 06:32:32;;;;;;;27.67;24.87;;;14.20;1.00;;;;;;5048609;28;20472;-83
2022/10/12 06:35:01;;;;;;;25.30;23.00;;;14.30;99.90;;;;;;5041353;28;20540;-83
2022/10/12 06:37:29;;;;;;;24.37;22.07;;;14.30;1.00;;;;;;5042396;28;20503;-84
2022/10/12 06:40:17;;;;;;;24.03;21.63;;;14.30;99.90;;;;;;5036375;28;20511;-85
2022/10/12 06:42:45;;;;;;;26.10;23.43;;;14.30;99.90;;;;;;5051931;28;20469;-84
2022/10/12 06:45:13;;;;;;;26.20;23.63;;;14.40;99.90;;;;;;5051902;28;20550;-84
2022/10/12 06:47:43;;;;;;;24.13;22.03;;;14.40;99.90;;;;;;5044184;28;20452;-83
2022/10/12 06:50:12;;;;;;;25.00;22.50;;;14.40;99.90;;;;;;5042964;28;20499;-83
2022/10/12 06:52:42;;;;;;;25.43;23.03;;;14.50;99.90;;;;;;5048520;28;20452;-84
2022/10/12 06:55:11;;;;;;;25.30;22.90;;;14.60;99.90;;;;;;5040293;28;20523;-84
2022/10/12 06:57:39;;;;;;;24.40;21.93;;;14.60;99.90;;;;;;5051876;28;20468;-84
2022/10/12 07:00:08;;;;;;;23.93;21.73;;;14.60;99.90;;;;;;5050164;28;20479;-83
2022/10/12 07:02:37;;;;;;;24.93;22.63;;;14.50;99.90;;;;;;5052169;28;20459;-83
2022/10/12 07:05:08;;;;;;;23.40;21.30;;;14.50;99.90;;;;;;5039508;28;20879;-84
2022/10/12 07:07:37;;;;;;;24.40;22.40;;;14.50;99.90;;;;;;5051809;28;21065;-83
2022/10/12 07:10:06;;;;;;;21.90;20.17;;;14.50;99.90;;;;;;5049584;28;20523;-83
2022/10/12 07:12:36;;;;;;;23.90;21.77;;;14.50;1.00;;;;;;5044480;28;20510;-83
2022/10/12 07:15:06;;;;;;;24.20;22.00;;;14.50;99.90;;;;;;5049607;28;20533;-83
2022/10/12 07:17:34;;;;;;;25.07;22.93;;;14.50;99.90;;;;;;5045054;28;20464;-83
2022/10/12 07:20:03;;;;;;;25.60;23.10;;;14.50;99.90;;;;;;5049819;28;20473;-83
2022/10/12 07:22:33;;;;;;;23.60;21.50;;;14.50;99.90;;;;;;5051460;28;20447;-84
2022/10/12 07:25:01;;;;;;;23.00;20.90;;;14.60;99.90;;;;;;5050512;28;20483;-84
2022/10/12 07:27:29;;;;;;;25.53;23.33;;;14.60;99.90;;;;;;5050692;28;20475;-83
2022/10/12 07:29:57;;;;;;;22.57;20.60;;;14.50;99.90;;;;;;5039218;28;20502;-84
2022/10/12 07:32:25;;;;;;;25.20;22.63;;;14.50;99.90;;;;;;5049863;28;20448;-84
2022/10/12 07:34:53;;;;;;;23.00;20.93;;;14.50;1.00;;;;;;5051162;28;20486;-84
2022/10/12 07:37:22;;;;;;;24.07;21.93;;;14.50;1.00;;;;;;5049976;28;20575;-84
2022/10/12 07:39:55;;;;;;;25.27;22.93;;;14.60;99.90;;;;;;5042916;28;20499;-83
2022/10/12 07:42:24;;;;;;;23.03;20.77;;;14.70;99.90;;;;;;5050441;28;20537;-83
2022/10/12 07:44:52;;;;;;;24.33;21.97;;;14.60;99.90;;;;;;5047675;28;20912;-84
2022/10/12 07:47:20;;;;;;;24.30;22.20;;;14.70;99.90;;;;;;5045517;28;20509;-83
2022/10/12 07:49:48;;;;;;;24.57;22.27;;;14.60;99.90;;;;;;5046351;28;20563;-84
2022/10/12 07:52:17;;;;;;;24.93;22.57;;;14.60;99.90;;;;;;5040733;28;20555;-85
2022/10/12 07:54:45;;;;;;;23.37;21.27;;;14.70;99.90;;;;;;5043614;28;20483;-83
2022/10/12 07:57:14;;;;;;;23.77;21.53;;;14.70;99.90;;;;;;5045384;28;20483;-83
2022/10/12 07:59:42;;;;;;;25.37;22.87;;;14.60;99.90;;;;;;5047196;28;20515;-85
2022/10/12 08:02:11;;;;;;;22.57;20.43;;;14.70;99.90;;;;;;5045540;28;20451;-83
2022/10/12 08:04:40;;;;;;;30.10;23.80;;;14.80;99.90;;;;;;5040029;28;20486;-84
2022/10/12 08:07:08;;;;;;;24.40;21.80;;;14.90;99.90;;;;;;5043946;28;20483;-84
2022/10/12 08:09:37;;;;;;;24.33;22.03;;;15.00;1.00;;;;;;5046736;28;20472;-84
2022/10/12 08:12:05;;;;;;;25.83;23.43;;;15.00;99.90;;;;;;5043332;28;20479;-82
2022/10/12 08:14:35;;;;;;;23.87;21.47;;;15.00;1.00;;;;;;5039137;28;20484;-83
2022/10/12 08:17:04;;;;;;;25.53;23.07;;;15.00;1.00;;;;;;5041794;28;20453;-83
2022/10/12 08:19:32;;;;;;;24.50;22.03;;;15.00;99.90;;;;;;5048866;28;20573;-83
2022/10/12 08:22:02;;;;;;;26.63;23.10;;;15.00;99.90;;;;;;5048204;28;20447;-82
2022/10/12 08:24:32;;;;;;;30.20;22.77;;;14.90;1.00;;;;;;5044892;28;20506;-82
2022/10/12 08:27:01;;;;;;;25.57;22.87;;;14.90;1.00;;;;;;5043676;28;21022;-82
2022/10/12 08:29:29;;;;;;;24.07;21.93;;;14.80;43.00;;;;;;5043937;28;20483;-84
2022/10/12 08:32:00;;;;;;;24.83;22.37;;;14.90;99.90;;;;;;5033803;28;20453;-83
2022/10/12 08:34:29;;;;;;;26.07;23.40;;;14.90;1.00;;;;;;5043248;28;20555;-83
2022/10/12 08:36:59;;;;;;;23.30;21.00;;;15.00;99.90;;;;;;5047374;28;20460;-83
2022/10/12 08:39:27;;;;;;;24.60;21.23;;;15.00;1.00;;;;;;5046281;28;20502;-83
2022/10/12 08:42:08;;;;;;;25.80;23.07;;;15.10;1.00;;;;;;5039324;28;20460;-83
2022/10/12 08:45:00;;;;;;;25.60;23.20;;;15.00;99.90;;;;;;5039324;28;20561;-83
2022/10/12 08:47:38;;;;;;;25.97;23.37;;;14.80;1.00;;;;;;5039096;28;20456;-83
2022/10/12 08:50:14;;;;;;;25.40;22.83;;;14.90;99.90;;;;;;5044776;28;20530;-83
2022/10/12 08:52:51;;;;;;;27.37;22.70;;;14.90;99.90;;;;;;5036394;28;20460;-82
2022/10/12 08:55:28;;;;;;;26.00;21.73;;;14.90;99.90;;;;;;5034335;28;20495;-84
2022/10/12 08:57:57;;;;;;;25.67;22.13;;;14.90;1.00;;;;;;5046183;28;20544;-84
2022/10/12 09:00:25;;;;;;;22.87;20.83;;;15.10;99.90;;;;;;5048007;28;20487;-83
2022/10/12 09:03:07;;;;;;;22.77;20.57;;;15.20;99.90;;;;;;5042080;28;20458;-83
2022/10/12 09:05:42;;;;;;;24.87;22.47;;;15.10;1.00;;;;;;5047619;28;20468;-83
2022/10/12 09:08:18;;;;;;;26.83;24.00;;;15.10;99.90;;;;;;5039957;28;20449;-83
2022/10/12 09:10:52;;;;;;;25.33;22.40;;;15.20;99.90;;;;;;5040078;28;20546;-83
2022/10/12 09:13:33;;;;;;;25.63;23.13;;;15.10;1.00;;;;;;5039208;28;20488;-83
2022/10/12 09:16:06;;;;;;;27.00;22.30;;;15.10;1.00;;;;;;5044849;28;20565;-82
2022/10/12 09:18:39;;;;;;;26.47;23.67;;;15.10;1.00;;;;;;5048700;28;20440;-83
2022/10/12 09:21:13;;;;;;;24.47;21.90;;;15.10;99.90;;;;;;5044560;28;20508;-83
2022/10/12 09:23:43;;;;;;;24.23;21.83;;;15.10;99.90;;;;;;5051683;28;20453;-82
2022/10/12 09:26:15;;;;;;;24.40;21.80;;;15.00;99.90;;;;;;5043650;28;20440;-83
2022/10/12 09:28:46;;;;;;;24.00;21.60;;;15.10;99.90;;;;;;5047444;28;20492;-83
2022/10/12 09:31:39;;;;;;;21.97;19.57;;;15.00;92.40;;;;;;5046991;28;20464;-82
2022/10/12 09:34:10;;;;;;;23.47;20.40;;;15.20;1.00;;;;;;5045217;28;20464;-83
2022/10/12 09:36:45;;;;;;;21.43;19.43;;;15.20;1.00;;;;;;5049109;28;20461;-83
2022/10/12 09:39:19;;;;;;;25.00;20.40;;;15.20;1.00;;;;;;5044566;28;20489;-83
2022/10/12 09:41:50;;;;;;;23.13;20.63;;;15.20;99.90;;;;;;5048800;28;20525;-83
2022/10/12 09:44:28;;;;;;;20.40;18.50;;;15.20;99.90;;;;;;5040007;28;20452;-83
2022/10/12 09:46:59;;;;;;;22.90;20.03;;;15.40;1.00;;;;;;5044891;28;21051;-83
2022/10/12 09:49:42;;;;;;;22.63;19.90;;;15.40;99.90;;;;;;5052840;28;20521;-82
2022/10/12 09:52:12;;;;;;;21.73;18.37;;;15.30;99.90;;;;;;5044802;28;20563;-84
2022/10/12 09:54:47;;;;;;;26.63;20.80;;;15.30;99.90;;;;;;5044877;28;21333;-82
2022/10/12 09:57:19;;;;;;;21.60;17.80;;;15.30;1.00;;;;;;5039724;28;20457;-83
2022/10/12 09:59:48;;;;;;;22.20;19.90;;;15.30;42.80;;;;;;5037263;28;20501;-83
2022/10/12 10:02:18;;;;;;;23.03;17.87;;;15.20;1.00;;;;;;5040711;28;20460;-84
2022/10/12 10:04:49;;;;;;;18.80;17.13;;;15.20;1.00;;;;;;5042438;28;20452;-82
2022/10/12 10:07:27;;;;;;;19.43;17.53;;;15.30;1.00;;;;;;5041890;28;20460;-84
2022/10/12 10:10:13;;;;;;;20.60;18.37;;;15.40;99.90;;;;;;5041358;28;21030;-84
2022/10/12 10:12:48;;;;;;;19.27;17.27;;;15.40;99.90;;;;;;5040192;28;20449;-85
2022/10/12 10:15:26;;;;;;;19.00;17.10;;;15.50;99.90;;;;;;5039815;28;20486;-84
2022/10/12 10:17:58;;;;;;;24.73;18.87;;;15.40;99.90;;;;;;5050101;28;20551;-83
2022/10/12 10:20:31;;;;;;;17.37;15.77;;;15.50;99.90;;;;;;5044913;28;21002;-83
2022/10/12 10:23:03;;;;;;;17.63;14.97;;;15.60;1.00;;;;;;5042429;28;20728;-82
2022/10/12 10:25:32;;;;;;;21.77;15.50;;;15.60;99.90;;;;;;5042279;28;21344;-83
2022/10/12 10:28:22;;;;;;;17.47;15.77;;;15.60;1.00;;;;;;5041954;28;20541;-83
2022/10/12 10:31:01;;;;;;;18.63;15.50;;;15.70;1.00;;;;;;5045337;28;20480;-83
2022/10/12 10:33:30;;;;;;;17.73;15.80;;;15.70;99.90;;;;;;5049404;28;20485;-83
2022/10/12 10:36:03;;;;;;;17.70;15.80;;;15.60;99.90;;;;;;5043138;28;21089;-84
2022/10/12 10:38:33;;;;;;;18.60;16.13;;;15.70;1.00;;;;;;5038794;28;20455;-83
2022/10/12 10:41:05;;;;;;;17.20;15.70;;;15.70;99.90;;;;;;5036139;28;20544;-84
2022/10/12 10:43:35;;;;;;;17.70;16.00;;;15.70;99.90;;;;;;5053429;28;20628;-84
2022/10/12 10:46:05;;;;;;;17.20;15.40;;;15.80;99.90;;;;;;5050436;28;20453;-82
2022/10/12 10:48:50;;;;;;;18.03;15.40;;;15.80;46.60;;;;;;5042544;28;20453;-83
2022/10/12 10:51:20;;;;;;;22.67;17.33;;;15.70;99.90;;;;;;5042949;28;20458;-84
2022/10/12 10:53:50;;;;;;;16.67;15.17;;;15.80;99.90;;;;;;5041984;28;20466;-83
2022/10/12 10:56:24;;;;;;;18.73;15.90;;;15.80;99.90;;;;;;5043939;28;20511;-83
2022/10/12 10:58:56;;;;;;;21.67;15.37;;;15.80;99.90;;;;;;5042412;28;20624;-83
2022/10/12 11:01:38;;;;;;;20.40;16.30;;;15.90;99.90;;;;;;5039781;28;20430;-83
2022/10/12 11:04:10;;;;;;;22.03;16.70;;;15.90;36.60;;;;;;5039422;28;20457;-83
2022/10/12 11:06:43;;;;;;;17.43;15.10;;;15.80;16.40;;;;;;5041379;28;20537;-83
2022/10/12 11:09:15;;;;;;;16.20;14.20;;;16.00;99.90;;;;;;5043331;28;20527;-83
2022/10/12 11:11:47;;;;;;;16.50;14.57;;;16.00;1.00;;;;;;5045292;28;20520;-82
2022/10/12 11:14:17;;;;;;;17.77;15.93;;;16.00;7.70;;;;;;5046278;28;21267;-84
2022/10/12 11:16:51;;;;;;;16.90;15.17;;;16.00;1.00;;;;;;5041123;28;20483;-85
2022/10/12 11:19:29;;;;;;;16.87;15.30;;;16.00;1.00;;;;;;5040225;28;20481;-84
2022/10/12 11:22:05;;;;;;;19.50;14.97;;;16.10;95.70;;;;;;5045071;28;20492;-82
2022/10/12 11:24:40;;;;;;;17.50;15.37;;;16.10;1.00;;;;;;5038189;28;20468;-83
2022/10/12 11:27:14;;;;;;;16.27;14.60;;;16.10;1.00;;;;;;5045002;28;20468;-83
2022/10/12 11:29:43;;;;;;;19.33;15.70;;;16.10;1.00;;;;;;5041803;28;20476;-83
2022/10/12 11:32:22;;;;;;;17.13;15.43;;;15.90;1.00;;;;;;5038117;28;20575;-83
2022/10/12 11:34:55;;;;;;;17.27;14.10;;;15.90;99.90;;;;;;5039096;28;20460;-84
2022/10/12 11:37:32;;;;;;;16.83;15.23;;;16.00;1.00;;;;;;5039420;28;20550;-84
2022/10/12 11:40:02;;;;;;;15.40;13.83;;;16.10;1.00;;;;;;5040471;28;20471;-84
2022/10/12 11:42:33;;;;;;;23.27;15.80;;;16.10;1.00;;;;;;5038592;28;20556;-84
2022/10/12 11:45:05;;;;;;;15.77;14.30;;;16.10;1.00;;;;;;5040635;28;20976;-83
2022/10/12 11:47:38;;;;;;;15.93;14.30;;;16.20;1.00;;;;;;5037415;28;21115;-83
2022/10/12 11:50:18;;;;;;;15.37;13.97;;;16.20;1.00;;;;;;5039243;28;20477;-83
2022/10/12 11:52:50;;;;;;;17.93;14.53;;;16.20;1.00;;;;;;5040075;28;20495;-83
2022/10/12 11:55:35;;;;;;;18.17;15.33;;;16.40;99.90;;;;;;5039429;28;20466;-83
2022/10/12 11:58:10;;;;;;;16.90;15.10;;;16.30;99.90;;;;;;5036258;28;20585;-84
2022/10/12 12:00:55;;;;;;;16.17;14.47;;;16.20;99.90;;;;;;5039053;28;20494;-83
2022/10/12 12:03:33;;;;;;;14.07;12.63;;;16.20;99.90;;;;;;5036477;28;20474;-83
2022/10/12 12:06:42;;;;;;;21.13;13.20;;;16.30;99.90;;;;;;5039645;28;22030;-83
2022/10/12 12:09:30;;;;;;;14.90;13.40;;;16.40;99.90;;;;;;5040252;28;20478;-83
2022/10/12 12:12:11;;;;;;;14.53;13.20;;;16.30;99.90;;;;;;5041144;28;20494;-84
2022/10/12 12:15:08;;;;;;;14.07;12.60;;;16.40;99.90;;;;;;5042796;28;20532;-84
2022/10/12 12:17:37;;;;;;;15.57;13.97;;;16.40;99.90;;;;;;5037584;28;20489;-84
2022/10/12 12:20:38;;;;;;;15.13;13.83;;;16.50;99.90;;;;;;5037045;28;20869;-84
2022/10/12 12:23:19;;;;;;;18.40;13.63;;;16.60;99.90;;;;;;5032849;28;20601;-83
2022/10/12 12:26:05;;;;;;;14.90;13.37;;;16.50;99.90;;;;;;5040982;28;20458;-83
2022/10/12 12:28:41;;;;;;;14.63;13.33;;;16.50;99.90;;;;;;5036321;28;20974;-83
2022/10/12 12:31:14;;;;;;;14.97;13.53;;;16.60;99.90;;;;;;5040971;28;21315;-83
2022/10/12 12:33:46;;;;;;;14.83;12.53;;;16.60;99.90;;;;;;5040449;28;20459;-84
2022/10/12 12:36:26;;;;;;;15.90;13.67;;;16.50;99.90;;;;;;5040705;28;20455;-84
2022/10/12 12:38:54;;;;;;;14.70;13.23;;;16.60;99.90;;;;;;5042772;28;20470;-83
2022/10/12 12:41:28;;;;;;;16.00;14.33;;;16.60;99.90;;;;;;5039633;28;20516;-84
2022/10/12 12:43:58;;;;;;;14.93;12.97;;;16.50;99.90;;;;;;5050805;28;21057;-83
2022/10/12 12:47:06;;;;;;;14.30;12.80;;;16.60;99.90;;;;;;5044775;28;20532;-83
2022/10/12 12:49:59;;;;;;;15.13;13.13;;;16.80;99.90;;;;;;5029169;28;20566;-82
2022/10/12 12:52:29;;;;;;;13.77;12.47;;;17.00;99.90;;;;;;5040418;28;20494;-82
2022/10/12 12:55:39;;;;;;;12.73;11.47;;;16.90;44.40;;;;;;5043195;28;20553;-83